createdAt,value
2019-02-17T00:02:25.150Z,44.88
2019-02-17T00:04:53.560Z,47.58
2019-02-17T00:07:21.958Z,44.25
2019-02-17T00:12:38.583Z,47.67
2019-02-17T00:15:08.717Z,43.80
2019-02-17T00:17:37.102Z,42.60
2019-02-17T00:20:08.143Z,40.60
2019-02-17T00:22:36.627Z,40.50
2019-02-17T00:25:06.651Z,38.50
2019-02-17T00:27:35.069Z,41.90
2019-02-17T00:30:03.896Z,46.83
2019-02-17T00:32:32.321Z,43.35
2019-02-17T00:35:00.702Z,42.90
2019-02-17T00:37:31.125Z,43.38
2019-02-17T00:39:59.577Z,39.75
2019-02-17T00:42:28.063Z,42.13
2019-02-17T00:44:56.478Z,41.92
2019-02-17T00:47:24.889Z,41.95
2019-02-17T00:49:53.265Z,43.00
2019-02-17T00:52:23.025Z,41.05
2019-02-17T00:54:51.432Z,44.05
2019-02-17T00:57:19.881Z,40.90
2019-02-17T00:59:48.294Z,42.30
2019-02-17T01:02:16.703Z,40.95
2019-02-17T01:04:45.164Z,41.73
2019-02-17T01:07:13.553Z,47.78
2019-02-17T01:09:41.954Z,45.15
2019-02-17T01:12:10.370Z,42.43
2019-02-17T01:14:38.756Z,44.33
2019-02-17T01:17:07.154Z,46.20
2019-02-17T01:19:35.575Z,42.33
2019-02-17T01:22:03.975Z,45.25
2019-02-17T01:24:32.384Z,47.05
2019-02-17T01:27:00.865Z,44.85
2019-02-17T01:29:30.159Z,44.98
2019-02-17T01:31:59.470Z,49.50
2019-02-17T01:34:27.915Z,45.30
2019-02-17T01:36:56.327Z,47.73
2019-02-17T01:39:24.720Z,46.40
2019-02-17T01:41:53.134Z,45.78
2019-02-17T01:44:21.615Z,45.35
2019-02-17T01:46:50.002Z,43.83
2019-02-17T01:49:18.499Z,47.65
2019-02-17T01:51:46.885Z,45.58
2019-02-17T01:54:15.264Z,42.80
2019-02-17T01:56:43.673Z,46.23
2019-02-17T01:59:12.090Z,43.40
2019-02-17T02:01:40.469Z,44.33
2019-02-17T02:04:08.893Z,44.70
2019-02-17T02:06:37.262Z,45.55
2019-02-17T02:09:08.408Z,43.58
2019-02-17T02:11:36.891Z,47.25
2019-02-17T02:14:06.626Z,46.25
2019-02-17T02:16:35.048Z,46.92
2019-02-17T02:19:03.403Z,48.17
2019-02-17T02:21:31.835Z,45.50
2019-02-17T02:24:00.226Z,41.70
2019-02-17T02:26:28.642Z,48.63
2019-02-17T02:28:57.054Z,46.05
2019-02-17T02:31:25.434Z,43.13
2019-02-17T02:33:53.840Z,47.35
2019-02-17T02:36:22.249Z,47.03
2019-02-17T02:38:50.679Z,45.55
2019-02-17T02:41:19.075Z,47.03
2019-02-17T02:43:47.452Z,48.00
2019-02-17T02:46:16.258Z,48.85
2019-02-17T02:48:45.731Z,46.25
2019-02-17T02:51:14.107Z,48.17
2019-02-17T02:53:44.408Z,48.65
2019-02-17T02:56:12.805Z,47.43
2019-02-17T02:58:42.209Z,50.05
2019-02-17T03:01:11.478Z,49.13
2019-02-17T03:03:39.883Z,47.08
2019-02-17T03:06:16.193Z,44.42
2019-02-17T03:08:46.568Z,49.48
2019-02-17T03:11:14.959Z,50.03
2019-02-17T03:13:43.361Z,50.23
2019-02-17T03:16:11.738Z,47.62
2019-02-17T03:18:40.179Z,46.42
2019-02-17T03:21:08.555Z,47.40
2019-02-17T03:23:37.272Z,51.18
2019-02-17T03:26:05.680Z,49.10
2019-02-17T03:28:34.045Z,49.73
2019-02-17T03:31:02.506Z,52.03
2019-02-17T03:33:31.866Z,52.25
2019-02-17T03:36:00.242Z,54.33
2019-02-17T03:38:30.323Z,48.98
2019-02-17T03:40:58.695Z,51.98
2019-02-17T03:43:27.079Z,49.67
2019-02-17T03:45:55.520Z,53.25
2019-02-17T03:48:23.900Z,54.35
2019-02-17T03:50:52.284Z,50.85
2019-02-17T03:53:20.742Z,51.15
2019-02-17T03:55:52.179Z,50.78
2019-02-17T03:58:20.901Z,50.00
2019-02-17T04:00:49.343Z,50.90
2019-02-17T04:03:17.722Z,51.45
2019-02-17T04:05:46.126Z,53.08
2019-02-17T04:08:16.203Z,57.00
2019-02-17T04:10:44.598Z,53.35
2019-02-17T04:13:12.994Z,56.35
2019-02-17T04:15:41.507Z,52.95
2019-02-17T04:18:10.933Z,55.00
2019-02-17T04:20:41.282Z,59.45
2019-02-17T04:23:09.671Z,50.33
2019-02-17T04:25:38.090Z,53.52
2019-02-17T04:28:06.468Z,48.65
2019-02-17T04:30:34.936Z,54.58
2019-02-17T04:33:03.402Z,51.00
2019-02-17T04:35:31.881Z,56.15
2019-02-17T04:38:01.289Z,56.45
2019-02-17T04:40:29.666Z,57.03
2019-02-17T04:42:58.061Z,57.80
2019-02-17T04:45:26.489Z,57.55
2019-02-17T04:47:54.885Z,56.30
2019-02-17T04:50:23.271Z,54.38
2019-02-17T04:52:51.710Z,53.30
2019-02-17T04:55:20.094Z,59.42
2019-02-17T04:57:48.479Z,52.13
2019-02-17T05:00:16.914Z,54.05
2019-02-17T05:02:45.301Z,57.20
2019-02-17T05:05:33.176Z,55.90
2019-02-17T05:08:01.587Z,56.40
2019-02-17T05:10:29.946Z,49.10
2019-02-17T05:13:05.418Z,51.68
2019-02-17T05:15:34.750Z,57.62
2019-02-17T05:18:03.151Z,53.48
2019-02-17T05:20:31.577Z,53.15
2019-02-17T05:23:00.360Z,58.25
2019-02-17T05:25:29.133Z,55.17
2019-02-17T05:27:57.524Z,52.48
2019-02-17T05:30:25.902Z,55.30
2019-02-17T05:32:54.644Z,54.70
2019-02-17T05:35:23.019Z,57.13
2019-02-17T05:37:51.424Z,58.83
2019-02-17T05:40:19.845Z,53.70
2019-02-17T05:42:48.272Z,54.53
2019-02-17T05:45:16.634Z,54.25
2019-02-17T05:47:45.071Z,52.40
2019-02-17T05:50:13.551Z,56.25
2019-02-17T05:52:41.943Z,52.80
2019-02-17T05:55:10.799Z,58.10
2019-02-17T05:57:40.195Z,56.68
2019-02-17T06:00:31.024Z,54.98
2019-02-17T06:02:59.419Z,53.25
2019-02-17T06:05:27.828Z,52.25
2019-02-17T06:07:57.184Z,55.10
2019-02-17T06:10:26.521Z,47.30
2019-02-17T06:12:54.989Z,53.15
2019-02-17T06:15:23.417Z,50.35
2019-02-17T06:17:51.815Z,51.53
2019-02-17T06:20:20.187Z,52.33
2019-02-17T06:22:48.605Z,56.70
2019-02-17T06:25:17.010Z,50.43
2019-02-17T06:27:45.420Z,58.45
2019-02-17T06:30:13.868Z,52.43
2019-02-17T06:32:42.578Z,49.10
2019-02-17T06:35:10.975Z,50.55
2019-02-17T06:37:39.406Z,55.95
2019-02-17T06:40:08.939Z,51.42
2019-02-17T06:42:37.330Z,56.13
2019-02-17T06:45:07.373Z,53.30
2019-02-17T06:47:35.857Z,59.93
2019-02-17T06:50:05.024Z,57.35
2019-02-17T06:52:33.490Z,54.55
2019-02-17T06:55:03.522Z,52.65
2019-02-17T06:57:33.593Z,59.90
2019-02-17T07:00:07.937Z,50.75
2019-02-17T07:02:36.322Z,54.63
2019-02-17T07:05:10.250Z,56.37
2019-02-17T07:07:38.652Z,64.27
2019-02-17T07:10:07.027Z,55.52
2019-02-17T07:12:35.453Z,53.50
2019-02-17T07:15:05.374Z,56.88
2019-02-17T07:17:33.766Z,53.73
2019-02-17T07:20:02.180Z,51.30
2019-02-17T07:22:30.572Z,51.48
2019-02-17T07:25:02.045Z,51.40
2019-02-17T07:27:30.436Z,53.70
2019-02-17T07:30:09.061Z,51.70
2019-02-17T07:32:38.433Z,53.13
2019-02-17T07:35:07.267Z,55.65
2019-02-17T07:37:35.687Z,51.92
2019-02-17T07:40:05.100Z,58.65
2019-02-17T07:42:33.505Z,57.10
2019-02-17T07:45:02.993Z,50.20
2019-02-17T07:47:31.404Z,57.80
2019-02-17T07:50:00.335Z,53.35
2019-02-17T07:52:28.689Z,51.95
2019-02-17T07:54:57.084Z,48.60
2019-02-17T07:57:25.509Z,54.83
2019-02-17T07:59:53.903Z,46.50
2019-02-17T08:02:22.296Z,49.42
2019-02-17T08:04:50.717Z,46.73
2019-02-17T08:07:19.121Z,52.17
2019-02-17T08:09:47.595Z,52.23
2019-02-17T08:12:16.026Z,47.62
2019-02-17T08:14:44.484Z,49.40
2019-02-17T08:17:12.985Z,50.23
2019-02-17T08:19:41.417Z,51.55
2019-02-17T08:22:09.851Z,49.03
2019-02-17T08:24:38.283Z,47.60
2019-02-17T08:27:06.670Z,51.35
2019-02-17T08:29:35.132Z,47.35
2019-02-17T08:32:03.940Z,53.58
2019-02-17T08:34:32.339Z,56.88
2019-02-17T08:37:00.736Z,47.05
2019-02-17T08:39:31.261Z,49.38
2019-02-17T08:41:59.633Z,53.90
2019-02-17T08:44:28.019Z,48.58
2019-02-17T08:46:56.469Z,50.80
2019-02-17T08:49:24.857Z,54.83
2019-02-17T08:51:53.305Z,51.37
2019-02-17T08:54:21.724Z,46.77
2019-02-17T08:56:50.182Z,46.37
2019-02-17T08:59:19.526Z,48.83
2019-02-17T09:01:49.233Z,46.53
2019-02-17T09:04:18.659Z,45.20
2019-02-17T09:06:47.071Z,43.40
2019-02-17T09:09:17.250Z,41.00
2019-02-17T09:11:45.713Z,41.42
2019-02-17T09:14:14.124Z,43.30
2019-02-17T09:16:42.511Z,44.45
2019-02-17T09:19:10.971Z,40.05
2019-02-17T09:22:12.229Z,40.10
2019-02-17T09:24:41.615Z,41.15
2019-02-17T09:27:10.030Z,36.73
2019-02-17T09:29:57.899Z,39.18
2019-02-17T09:32:26.323Z,41.58
2019-02-17T09:34:54.720Z,37.67
2019-02-17T09:37:23.150Z,42.80
2019-02-17T09:39:52.555Z,40.60
2019-02-17T09:42:20.971Z,40.20
2019-02-17T09:44:49.371Z,42.00
2019-02-17T09:47:18.757Z,41.35
2019-02-17T09:49:47.616Z,43.65
2019-02-17T09:52:16.050Z,38.98
2019-02-17T09:54:44.481Z,41.28
2019-02-17T09:57:12.879Z,44.63
2019-02-17T09:59:41.268Z,42.23
2019-02-17T10:02:09.690Z,47.75
2019-02-17T10:04:38.096Z,46.37
2019-02-17T10:07:06.614Z,44.83
2019-02-17T10:09:35.018Z,43.70
2019-02-17T10:12:03.419Z,49.10
2019-02-17T10:14:33.068Z,45.60
2019-02-17T10:17:01.471Z,44.38
2019-02-17T10:19:30.991Z,44.00
2019-02-17T10:21:59.380Z,45.80
2019-02-17T10:24:27.792Z,41.80
2019-02-17T10:26:56.218Z,42.60
2019-02-17T10:29:24.924Z,44.42
2019-02-17T10:31:53.358Z,42.62
2019-02-17T10:34:21.797Z,42.53
2019-02-17T10:36:50.507Z,49.42
2019-02-17T10:39:18.906Z,47.88
2019-02-17T10:41:47.443Z,44.45
2019-02-17T10:44:15.835Z,41.55
2019-02-17T10:46:47.380Z,42.38
2019-02-17T10:49:15.790Z,47.73
2019-02-17T10:51:45.108Z,41.02
2019-02-17T10:54:13.529Z,44.25
2019-02-17T10:56:41.949Z,36.93
2019-02-17T10:59:10.360Z,42.98
2019-02-17T11:01:48.963Z,41.45
2019-02-17T11:04:17.436Z,38.58
2019-02-17T11:06:45.822Z,39.70
2019-02-17T11:09:19.035Z,38.02
2019-02-17T11:11:47.466Z,42.43
2019-02-17T11:14:15.858Z,40.05
2019-02-17T11:16:44.299Z,37.05
2019-02-17T11:19:12.692Z,37.67
2019-02-17T11:21:41.099Z,38.60
2019-02-17T11:24:09.529Z,34.48
2019-02-17T11:26:38.003Z,35.35
2019-02-17T11:29:07.261Z,31.60
2019-02-17T11:31:35.979Z,37.03
2019-02-17T11:34:04.539Z,35.50
2019-02-17T11:36:33.930Z,33.02
2019-02-17T11:39:02.313Z,33.08
2019-02-17T11:41:30.754Z,34.35
2019-02-17T11:43:59.147Z,31.65
2019-02-17T11:46:27.866Z,35.40
2019-02-17T11:48:57.459Z,34.33
2019-02-17T11:51:25.848Z,33.38
2019-02-17T11:53:58.360Z,31.57
2019-02-17T11:58:54.492Z,30.57
2019-02-17T12:01:22.896Z,29.30
2019-02-17T12:03:51.305Z,26.27
2019-02-17T12:06:19.799Z,28.83
2019-02-17T12:08:49.157Z,28.92
2019-02-17T12:11:17.555Z,28.90
2019-02-17T12:13:46.025Z,23.85
2019-02-17T12:16:14.439Z,30.20
2019-02-17T12:18:42.927Z,24.60
2019-02-17T12:21:15.688Z,26.95
2019-02-17T12:23:48.654Z,25.72
2019-02-17T12:26:21.443Z,24.12
2019-02-17T12:28:54.117Z,39.23
2019-02-17T12:31:31.052Z,25.68
2019-02-17T12:33:59.503Z,26.68
2019-02-17T12:36:28.200Z,23.67
2019-02-17T12:38:56.604Z,30.00
2019-02-17T12:41:25.054Z,27.02
2019-02-17T12:43:53.436Z,28.15
2019-02-17T12:46:22.139Z,24.47
2019-02-17T12:48:50.572Z,28.67
2019-02-17T12:51:19.041Z,28.60
2019-02-17T12:53:48.184Z,25.92
2019-02-17T12:56:17.863Z,25.43
2019-02-17T12:58:46.301Z,31.57
2019-02-17T13:01:14.697Z,29.15
2019-02-17T13:03:43.107Z,24.32
2019-02-17T13:06:12.672Z,26.10
2019-02-17T13:08:41.988Z,27.48
2019-02-17T13:11:10.385Z,24.52
2019-02-17T13:13:38.827Z,24.02
2019-02-17T13:16:07.227Z,28.27
2019-02-17T13:18:35.635Z,22.52
2019-02-17T13:21:04.055Z,22.60
2019-02-17T13:23:32.520Z,22.98
2019-02-17T13:26:00.986Z,20.17
2019-02-17T13:28:30.230Z,20.35
2019-02-17T13:30:58.653Z,22.70
2019-02-17T13:33:27.072Z,19.50
2019-02-17T13:35:55.458Z,19.65
2019-02-17T13:38:23.893Z,19.95
2019-02-17T13:40:52.309Z,24.07
2019-02-17T13:43:20.731Z,19.60
2019-02-17T13:45:49.190Z,24.43
2019-02-17T13:48:17.629Z,22.80
2019-02-17T13:50:46.012Z,22.00
2019-02-17T13:53:14.432Z,20.52
2019-02-17T13:55:45.665Z,23.35
2019-02-17T13:58:14.088Z,21.50
2019-02-17T14:00:42.441Z,16.35
2019-02-17T14:03:10.851Z,15.90
2019-02-17T14:05:39.217Z,19.02
2019-02-17T14:08:16.959Z,17.15
2019-02-17T14:10:48.077Z,18.73
2019-02-17T14:13:16.467Z,49.05
2019-02-17T14:15:45.885Z,18.00
2019-02-17T14:18:17.334Z,19.10
2019-02-17T14:20:46.669Z,26.02
2019-02-17T14:23:15.058Z,16.32
2019-02-17T14:25:43.462Z,21.30
2019-02-17T14:28:11.898Z,16.85
2019-02-17T14:30:40.297Z,12.88
2019-02-17T14:33:08.689Z,15.48
2019-02-17T14:35:37.139Z,14.78
2019-02-17T14:38:05.559Z,16.10
2019-02-17T14:40:34.903Z,18.57
2019-02-17T14:43:03.700Z,21.60
2019-02-17T14:45:32.102Z,20.05
2019-02-17T14:48:00.528Z,19.40
2019-02-17T14:50:28.969Z,21.80
2019-02-17T14:53:00.135Z,26.70
2019-02-17T14:55:28.612Z,28.42
2019-02-17T14:58:05.106Z,28.40
2019-02-17T15:00:27.118Z,30.37
2019-02-17T15:02:55.506Z,25.00
2019-02-17T15:05:24.913Z,28.02
2019-02-17T15:07:53.334Z,28.62
2019-02-17T15:10:21.720Z,26.23
2019-02-17T15:12:50.150Z,26.80
2019-02-17T15:15:18.844Z,28.30
2019-02-17T15:17:47.241Z,30.52
2019-02-17T15:20:24.032Z,21.68
2019-02-17T15:22:52.424Z,23.85
2019-02-17T15:25:20.823Z,28.60
2019-02-17T15:27:49.270Z,25.75
2019-02-17T15:30:18.098Z,27.60
2019-02-17T15:32:46.744Z,29.30
2019-02-17T15:35:15.145Z,26.97
2019-02-17T15:37:43.549Z,30.02
2019-02-17T15:40:14.457Z,30.17
2019-02-17T15:42:43.437Z,31.85
2019-02-17T15:45:13.524Z,35.43
2019-02-17T15:47:41.908Z,32.95
2019-02-17T15:50:11.982Z,31.65
2019-02-17T15:52:40.399Z,31.12
2019-02-17T15:55:11.295Z,30.45
2019-02-17T15:57:39.636Z,32.65
2019-02-17T16:00:14.121Z,37.30
2019-02-17T16:02:42.558Z,31.60
2019-02-17T16:05:10.947Z,24.30
2019-02-17T16:07:39.431Z,25.37
2019-02-17T16:10:17.706Z,26.23
2019-02-17T16:12:46.084Z,27.42
2019-02-17T16:15:26.022Z,24.87
2019-02-17T16:17:54.439Z,23.47
2019-02-17T16:20:22.831Z,28.47
2019-02-17T16:22:51.236Z,22.70
2019-02-17T16:25:19.666Z,19.80
2019-02-17T16:27:48.100Z,22.65
2019-02-17T16:30:18.419Z,18.92
2019-02-17T16:32:49.036Z,23.30
2019-02-17T16:35:17.456Z,21.15
2019-02-17T16:37:45.914Z,21.62
2019-02-17T16:40:15.627Z,19.27
2019-02-17T16:42:44.027Z,19.98
2019-02-17T16:45:13.685Z,20.30
2019-02-17T16:47:42.292Z,18.55
2019-02-17T16:50:16.524Z,18.92
2019-02-17T16:52:45.026Z,19.15
2019-02-17T16:55:13.440Z,19.87
2019-02-17T16:57:41.826Z,20.02
2019-02-17T17:00:17.676Z,18.57
2019-02-17T17:02:46.050Z,20.45
2019-02-17T17:05:14.485Z,18.87
2019-02-17T17:07:42.872Z,19.65
2019-02-17T17:10:11.364Z,20.82
2019-02-17T17:12:40.847Z,19.23
2019-02-17T17:15:09.647Z,18.75
2019-02-17T17:17:38.044Z,20.45
2019-02-17T17:20:12.902Z,21.27
2019-02-17T17:22:41.293Z,19.23
2019-02-17T17:25:12.589Z,20.15
2019-02-17T17:27:48.699Z,20.52
2019-02-17T17:30:19.973Z,20.37
2019-02-17T17:32:48.377Z,20.43
2019-02-17T17:35:16.792Z,22.70
2019-02-17T17:37:45.231Z,25.17
2019-02-17T17:40:15.080Z,23.67
2019-02-17T17:42:43.524Z,21.10
2019-02-17T17:45:24.267Z,18.67
2019-02-17T17:47:52.671Z,24.12
2019-02-17T17:50:21.373Z,20.65
2019-02-17T17:52:49.827Z,20.57
2019-02-17T17:55:20.169Z,22.87
2019-02-17T17:57:48.994Z,26.02
2019-02-17T18:00:19.500Z,22.32
2019-02-17T18:02:48.037Z,20.92
2019-02-17T18:05:19.566Z,19.20
2019-02-17T18:07:48.059Z,24.10
2019-02-17T18:10:17.132Z,25.62
2019-02-17T18:12:45.654Z,38.53
2019-02-17T18:15:15.783Z,20.12
2019-02-17T18:17:53.464Z,22.73
2019-02-17T18:20:15.229Z,22.55
2019-02-17T18:22:43.622Z,24.77
2019-02-17T18:25:15.593Z,22.95
2019-02-17T18:27:45.452Z,20.43
2019-02-17T18:30:18.147Z,21.20
2019-02-17T18:32:46.587Z,22.45
2019-02-17T18:35:19.779Z,24.35
2019-02-17T18:37:45.604Z,23.57
2019-02-17T18:40:16.465Z,24.90
2019-02-17T18:42:45.805Z,25.05
2019-02-17T18:45:15.991Z,25.52
2019-02-17T18:47:45.534Z,25.37
2019-02-17T18:50:18.792Z,25.52
2019-02-17T18:52:48.642Z,31.73
2019-02-17T18:55:18.717Z,30.37
2019-02-17T18:57:50.806Z,34.90
2019-02-17T19:00:24.957Z,28.47
2019-02-17T19:02:53.437Z,26.73
2019-02-17T19:05:31.539Z,33.08
2019-02-17T19:07:52.844Z,30.05
2019-02-17T19:10:22.234Z,33.28
2019-02-17T19:12:51.595Z,31.23
2019-02-17T19:15:22.604Z,40.90
2019-02-17T19:17:51.968Z,38.55
2019-02-17T19:20:26.332Z,34.40
2019-02-17T19:22:54.718Z,40.48
2019-02-17T19:25:23.439Z,36.28
2019-02-17T19:27:51.863Z,41.42
2019-02-17T19:30:20.277Z,30.62
2019-02-17T19:32:55.034Z,32.63
2019-02-17T19:35:24.418Z,33.38
2019-02-17T19:37:52.840Z,31.93
2019-02-17T19:40:23.509Z,29.85
2019-02-17T19:42:51.920Z,28.75
2019-02-17T19:45:22.255Z,38.40
2019-02-17T19:47:50.413Z,29.40
2019-02-17T19:50:18.784Z,34.78
2019-02-17T19:52:47.517Z,33.78
2019-02-17T19:55:16.002Z,36.28
2019-02-17T19:57:52.181Z,34.65
2019-02-17T20:00:22.037Z,39.75
2019-02-17T20:02:52.058Z,36.68
2019-02-17T20:05:22.138Z,39.35
2019-02-17T20:07:52.817Z,41.60
2019-02-17T20:10:24.042Z,37.95
2019-02-17T20:12:52.438Z,35.95
2019-02-17T20:15:23.578Z,33.15
2019-02-17T20:17:52.926Z,34.40
2019-02-17T20:20:23.511Z,33.98
2019-02-17T20:22:51.917Z,34.80
2019-02-17T20:25:20.375Z,32.42
2019-02-17T20:27:48.760Z,33.15
2019-02-17T20:30:17.161Z,34.08
2019-02-17T20:32:45.590Z,40.58
2019-02-17T20:35:14.403Z,37.28
2019-02-17T20:37:43.117Z,35.38
2019-02-17T20:40:13.917Z,34.23
2019-02-17T20:42:42.370Z,35.15
2019-02-17T20:45:30.425Z,34.55
2019-02-17T20:48:00.815Z,33.38
2019-02-17T20:50:29.530Z,33.65
2019-02-17T20:52:57.914Z,32.93
2019-02-17T20:55:27.266Z,36.38
2019-02-17T20:57:56.563Z,35.15
2019-02-17T21:00:32.971Z,35.30
2019-02-17T21:03:02.322Z,34.53
2019-02-17T21:05:30.884Z,37.20
2019-02-17T21:07:59.299Z,32.17
2019-02-17T21:10:28.100Z,35.50
2019-02-17T21:12:56.919Z,35.83
2019-02-17T21:15:25.355Z,36.35
2019-02-17T21:17:53.735Z,34.80
2019-02-17T21:20:22.507Z,36.00
2019-02-17T21:22:52.979Z,41.50
2019-02-17T21:25:21.296Z,40.10
2019-02-17T21:27:49.778Z,39.63
2019-02-17T21:30:19.155Z,35.65
2019-02-17T21:32:47.712Z,36.38
2019-02-17T21:35:16.827Z,38.28
2019-02-17T21:37:45.358Z,42.48
2019-02-17T21:40:14.201Z,41.23
2019-02-17T21:42:43.536Z,35.70
2019-02-17T21:45:14.433Z,36.05
2019-02-17T21:47:42.813Z,37.30
2019-02-17T21:50:15.020Z,36.15
2019-02-17T21:52:43.404Z,39.50
2019-02-17T21:55:12.874Z,38.98
2019-02-17T21:57:41.280Z,39.85
2019-02-17T22:00:20.423Z,37.75
2019-02-17T22:02:49.889Z,39.33
2019-02-17T22:05:18.761Z,44.10
2019-02-17T22:07:47.127Z,43.20
2019-02-17T22:10:17.765Z,41.48
2019-02-17T22:12:46.152Z,42.78
2019-02-17T22:15:19.490Z,40.38
2019-02-17T22:17:47.896Z,39.20
2019-02-17T22:20:16.280Z,48.58
2019-02-17T22:22:44.684Z,40.30
2019-02-17T22:25:14.519Z,41.68
2019-02-17T22:27:42.967Z,38.80
2019-02-17T22:30:13.007Z,39.70
2019-02-17T22:32:41.401Z,42.67
2019-02-17T22:35:10.031Z,40.15
2019-02-17T22:37:38.444Z,47.33
2019-02-17T22:40:15.970Z,50.83
2019-02-17T22:42:44.366Z,60.20
2019-02-17T22:45:13.124Z,60.05
2019-02-17T22:47:41.557Z,60.15
2019-02-17T22:50:12.343Z,62.65
2019-02-17T22:52:40.729Z,64.32
2019-02-17T22:55:10.862Z,72.08
2019-02-17T22:57:39.267Z,64.20
2019-02-17T23:00:29.925Z,67.12
2019-02-17T23:02:58.394Z,66.82
2019-02-17T23:05:27.101Z,76.67
2019-02-17T23:07:55.505Z,73.75
2019-02-17T23:10:23.955Z,69.72
2019-02-17T23:12:52.369Z,68.72
2019-02-17T23:15:20.746Z,65.10
2019-02-17T23:17:49.202Z,67.82
2019-02-17T23:20:19.566Z,65.47
2019-02-17T23:22:47.964Z,69.95
2019-02-17T23:25:17.414Z,68.52
2019-02-17T23:27:46.068Z,66.70
2019-02-17T23:30:14.462Z,70.37
2019-02-17T23:32:42.867Z,67.42
2019-02-17T23:35:12.092Z,69.97
2019-02-17T23:37:40.621Z,65.90
2019-02-17T23:40:11.407Z,70.70
2019-02-17T23:42:39.971Z,74.45
2019-02-17T23:45:12.583Z,68.47
2019-02-17T23:47:41.028Z,70.08
2019-02-17T23:50:11.835Z,71.12
2019-02-17T23:52:40.250Z,72.65
2019-02-17T23:55:10.813Z,73.22
2019-02-17T23:57:39.345Z,73.90
